Terminal Aerodrome Forecast
Issued by NWS

Home | Current Version | Previous Version | Text Only | Print | Product List | Glossary On
Versions: 1 2 3 4 5 6 7 8 9 10 11 12 13 14
375
FTUS46 KMFR 271749 CCA
TAFOTH
TAF COR
KOTH 271749Z 2718/2818 34010KT P6SM SCT040 BKN050
     FM271900 35012G20KT P6SM SCT050
     FM272100 35014G25KT P6SM SKC
     FM280300 36008KT P6SM SKC
     FM280900 02006KT P6SM FEW012=

USA.gov is the U.S. government's official web portal to all federal, state and local government web resources and services.